sensor_id;sensor_type;location;lat;lon;timestamp;P1;durP1;ratioP1;P2;durP2;ratioP2
33403;SDS011;19751;40.274;18.268;2024-02-23T00:01:35;9.05;;;6.80;;
33403;SDS011;19751;40.274;18.268;2024-02-23T00:04:01;11.25;;;7.65;;
33403;SDS011;19751;40.274;18.268;2024-02-23T00:06:27;15.60;;;9.65;;
33403;SDS011;19751;40.274;18.268;2024-02-23T00:08:53;11.90;;;8.35;;
33403;SDS011;19751;40.274;18.268;2024-02-23T00:11:20;11.50;;;7.95;;
33403;SDS011;19751;40.274;18.268;2024-02-23T00:13:46;12.60;;;8.20;;
33403;SDS011;19751;40.274;18.268;2024-02-23T00:16:11;10.75;;;7.72;;
33403;SDS011;19751;40.274;18.268;2024-02-23T00:18:37;9.73;;;6.82;;
33403;SDS011;19751;40.274;18.268;2024-02-23T00:21:03;10.07;;;7.18;;
33403;SDS011;19751;40.274;18.268;2024-02-23T00:23:29;14.57;;;8.57;;
33403;SDS011;19751;40.274;18.268;2024-02-23T00:25:54;15.38;;;8.90;;
33403;SDS011;19751;40.274;18.268;2024-02-23T00:28:20;23.15;;;11.57;;
33403;SDS011;19751;40.274;18.268;2024-02-23T00:30:45;14.63;;;9.63;;
33403;SDS011;19751;40.274;18.268;2024-02-23T00:33:11;12.57;;;7.07;;
33403;SDS011;19751;40.274;18.268;2024-02-23T00:35:36;11.02;;;6.47;;
33403;SDS011;19751;40.274;18.268;2024-02-23T00:38:02;13.18;;;8.70;;
33403;SDS011;19751;40.274;18.268;2024-02-23T00:40:27;14.10;;;8.68;;
33403;SDS011;19751;40.274;18.268;2024-02-23T00:42:53;10.15;;;6.03;;
33403;SDS011;19751;40.274;18.268;2024-02-23T00:45:19;10.38;;;5.70;;
33403;SDS011;19751;40.274;18.268;2024-02-23T00:47:44;8.43;;;5.68;;
33403;SDS011;19751;40.274;18.268;2024-02-23T00:50:11;12.48;;;6.18;;
33403;SDS011;19751;40.274;18.268;2024-02-23T00:52:37;7.50;;;5.10;;
33403;SDS011;19751;40.274;18.268;2024-02-23T00:55:03;9.02;;;5.82;;
33403;SDS011;19751;40.274;18.268;2024-02-23T00:57:28;8.98;;;6.10;;
33403;SDS011;19751;40.274;18.268;2024-02-23T00:59:55;9.00;;;5.72;;
33403;SDS011;19751;40.274;18.268;2024-02-23T01:02:21;13.18;;;8.50;;
33403;SDS011;19751;40.274;18.268;2024-02-23T01:04:47;12.85;;;8.30;;
33403;SDS011;19751;40.274;18.268;2024-02-23T01:07:13;12.52;;;7.13;;
33403;SDS011;19751;40.274;18.268;2024-02-23T01:09:38;8.70;;;6.60;;
33403;SDS011;19751;40.274;18.268;2024-02-23T01:12:04;14.25;;;7.60;;
33403;SDS011;19751;40.274;18.268;2024-02-23T01:14:29;23.08;;;11.07;;
33403;SDS011;19751;40.274;18.268;2024-02-23T01:16:55;20.20;;;11.60;;
33403;SDS011;19751;40.274;18.268;2024-02-23T01:19:20;22.27;;;13.20;;
33403;SDS011;19751;40.274;18.268;2024-02-23T01:21:46;14.15;;;7.95;;
33403;SDS011;19751;40.274;18.268;2024-02-23T01:24:11;11.00;;;5.85;;
33403;SDS011;19751;40.274;18.268;2024-02-23T01:26:37;9.23;;;6.93;;
33403;SDS011;19751;40.274;18.268;2024-02-23T01:29:03;11.27;;;6.47;;
33403;SDS011;19751;40.274;18.268;2024-02-23T01:31:28;11.00;;;6.05;;
33403;SDS011;19751;40.274;18.268;2024-02-23T01:33:54;7.40;;;5.57;;
33403;SDS011;19751;40.274;18.268;2024-02-23T01:36:19;8.10;;;5.43;;
33403;SDS011;19751;40.274;18.268;2024-02-23T01:38:45;8.18;;;5.45;;
33403;SDS011;19751;40.274;18.268;2024-02-23T01:41:11;11.13;;;6.00;;
33403;SDS011;19751;40.274;18.268;2024-02-23T01:43:37;9.82;;;5.15;;
33403;SDS011;19751;40.274;18.268;2024-02-23T01:46:02;10.32;;;6.10;;
33403;SDS011;19751;40.274;18.268;2024-02-23T01:48:29;7.63;;;5.25;;
33403;SDS011;19751;40.274;18.268;2024-02-23T01:50:54;10.63;;;5.43;;
33403;SDS011;19751;40.274;18.268;2024-02-23T01:53:20;10.48;;;5.15;;
33403;SDS011;19751;40.274;18.268;2024-02-23T01:55:47;12.57;;;6.03;;
33403;SDS011;19751;40.274;18.268;2024-02-23T01:58:14;6.93;;;5.40;;
33403;SDS011;19751;40.274;18.268;2024-02-23T02:00:40;8.10;;;5.28;;
33403;SDS011;19751;40.274;18.268;2024-02-23T02:03:05;12.10;;;5.78;;
33403;SDS011;19751;40.274;18.268;2024-02-23T02:05:31;5.75;;;4.15;;
33403;SDS011;19751;40.274;18.268;2024-02-23T02:07:56;6.47;;;4.47;;
33403;SDS011;19751;40.274;18.268;2024-02-23T02:10:25;10.90;;;4.72;;
33403;SDS011;19751;40.274;18.268;2024-02-23T02:12:52;21.45;;;5.53;;
33403;SDS011;19751;40.274;18.268;2024-02-23T02:15:20;9.45;;;5.35;;
33403;SDS011;19751;40.274;18.268;2024-02-23T02:17:47;10.52;;;4.68;;
33403;SDS011;19751;40.274;18.268;2024-02-23T02:20:13;7.15;;;4.57;;
33403;SDS011;19751;40.274;18.268;2024-02-23T02:22:39;8.95;;;4.32;;
33403;SDS011;19751;40.274;18.268;2024-02-23T02:25:05;9.32;;;5.28;;
33403;SDS011;19751;40.274;18.268;2024-02-23T02:27:31;11.23;;;4.97;;
33403;SDS011;19751;40.274;18.268;2024-02-23T02:29:57;9.15;;;5.13;;
33403;SDS011;19751;40.274;18.268;2024-02-23T02:32:22;9.32;;;5.47;;
33403;SDS011;19751;40.274;18.268;2024-02-23T02:34:48;7.05;;;4.40;;
33403;SDS011;19751;40.274;18.268;2024-02-23T02:37:14;7.50;;;5.45;;
33403;SDS011;19751;40.274;18.268;2024-02-23T02:39:39;13.10;;;5.55;;
33403;SDS011;19751;40.274;18.268;2024-02-23T02:42:05;7.43;;;4.50;;
33403;SDS011;19751;40.274;18.268;2024-02-23T02:44:31;7.50;;;5.50;;
33403;SDS011;19751;40.274;18.268;2024-02-23T02:46:56;10.30;;;4.15;;
33403;SDS011;19751;40.274;18.268;2024-02-23T02:49:22;11.77;;;4.40;;
33403;SDS011;19751;40.274;18.268;2024-02-23T02:51:49;8.68;;;4.43;;
33403;SDS011;19751;40.274;18.268;2024-02-23T02:54:14;10.80;;;4.38;;
33403;SDS011;19751;40.274;18.268;2024-02-23T02:56:43;14.00;;;4.82;;
33403;SDS011;19751;40.274;18.268;2024-02-23T02:59:09;8.45;;;4.65;;
33403;SDS011;19751;40.274;18.268;2024-02-23T03:01:35;8.15;;;4.78;;
33403;SDS011;19751;40.274;18.268;2024-02-23T03:04:01;12.93;;;5.88;;
33403;SDS011;19751;40.274;18.268;2024-02-23T03:06:26;7.82;;;5.18;;
33403;SDS011;19751;40.274;18.268;2024-02-23T03:08:52;10.25;;;6.43;;
33403;SDS011;19751;40.274;18.268;2024-02-23T03:11:17;11.75;;;5.40;;
33403;SDS011;19751;40.274;18.268;2024-02-23T03:13:43;11.23;;;6.93;;
33403;SDS011;19751;40.274;18.268;2024-02-23T03:16:15;9.55;;;4.65;;
33403;SDS011;19751;40.274;18.268;2024-02-23T03:18:43;14.20;;;5.28;;
33403;SDS011;19751;40.274;18.268;2024-02-23T03:21:09;7.28;;;3.88;;
33403;SDS011;19751;40.274;18.268;2024-02-23T03:23:35;6.78;;;5.13;;
33403;SDS011;19751;40.274;18.268;2024-02-23T03:26:01;11.75;;;5.45;;
33403;SDS011;19751;40.274;18.268;2024-02-23T03:28:27;7.60;;;4.72;;
33403;SDS011;19751;40.274;18.268;2024-02-23T03:30:53;7.93;;;3.75;;
33403;SDS011;19751;40.274;18.268;2024-02-23T03:33:18;11.07;;;4.50;;
33403;SDS011;19751;40.274;18.268;2024-02-23T03:35:44;5.72;;;4.00;;
33403;SDS011;19751;40.274;18.268;2024-02-23T03:38:09;7.30;;;4.80;;
33403;SDS011;19751;40.274;18.268;2024-02-23T03:40:35;6.88;;;4.20;;
33403;SDS011;19751;40.274;18.268;2024-02-23T03:43:01;14.07;;;4.20;;
33403;SDS011;19751;40.274;18.268;2024-02-23T03:45:27;11.65;;;4.40;;
33403;SDS011;19751;40.274;18.268;2024-02-23T03:47:53;8.75;;;4.82;;
33403;SDS011;19751;40.274;18.268;2024-02-23T03:50:18;9.93;;;4.40;;
33403;SDS011;19751;40.274;18.268;2024-02-23T03:52:44;5.88;;;4.43;;
33403;SDS011;19751;40.274;18.268;2024-02-23T03:55:10;7.43;;;4.05;;
33403;SDS011;19751;40.274;18.268;2024-02-23T03:57:35;12.60;;;5.03;;
33403;SDS011;19751;40.274;18.268;2024-02-23T04:00:01;7.20;;;4.82;;
33403;SDS011;19751;40.274;18.268;2024-02-23T04:02:27;12.10;;;6.38;;
33403;SDS011;19751;40.274;18.268;2024-02-23T04:04:54;14.15;;;5.43;;
33403;SDS011;19751;40.274;18.268;2024-02-23T04:07:19;5.28;;;4.03;;
33403;SDS011;19751;40.274;18.268;2024-02-23T04:09:45;8.55;;;4.40;;
33403;SDS011;19751;40.274;18.268;2024-02-23T04:12:17;8.95;;;4.72;;
33403;SDS011;19751;40.274;18.268;2024-02-23T04:14:49;9.00;;;4.95;;
33403;SDS011;19751;40.274;18.268;2024-02-23T04:17:14;11.57;;;4.78;;
33403;SDS011;19751;40.274;18.268;2024-02-23T04:19:40;10.65;;;5.13;;
33403;SDS011;19751;40.274;18.268;2024-02-23T04:22:07;10.68;;;4.88;;
33403;SDS011;19751;40.274;18.268;2024-02-23T04:24:39;15.27;;;5.60;;
33403;SDS011;19751;40.274;18.268;2024-02-23T04:27:06;6.65;;;4.65;;
33403;SDS011;19751;40.274;18.268;2024-02-23T04:29:32;8.02;;;4.63;;
33403;SDS011;19751;40.274;18.268;2024-02-23T04:31:59;9.80;;;5.22;;
33403;SDS011;19751;40.274;18.268;2024-02-23T04:34:25;9.88;;;4.93;;
33403;SDS011;19751;40.274;18.268;2024-02-23T04:36:51;9.70;;;4.95;;
33403;SDS011;19751;40.274;18.268;2024-02-23T04:39:16;11.88;;;5.70;;
33403;SDS011;19751;40.274;18.268;2024-02-23T04:41:42;9.13;;;5.38;;
33403;SDS011;19751;40.274;18.268;2024-02-23T04:44:07;8.27;;;5.53;;
33403;SDS011;19751;40.274;18.268;2024-02-23T04:46:33;10.00;;;5.90;;
33403;SDS011;19751;40.274;18.268;2024-02-23T04:48:59;11.20;;;5.05;;
33403;SDS011;19751;40.274;18.268;2024-02-23T04:51:25;10.90;;;5.68;;
33403;SDS011;19751;40.274;18.268;2024-02-23T04:53:51;14.50;;;5.88;;
33403;SDS011;19751;40.274;18.268;2024-02-23T04:56:16;7.78;;;5.18;;
33403;SDS011;19751;40.274;18.268;2024-02-23T04:58:43;11.63;;;7.25;;
33403;SDS011;19751;40.274;18.268;2024-02-23T05:01:08;7.78;;;5.30;;
33403;SDS011;19751;40.274;18.268;2024-02-23T05:03:34;11.63;;;6.05;;
33403;SDS011;19751;40.274;18.268;2024-02-23T05:06:01;7.85;;;4.75;;
33403;SDS011;19751;40.274;18.268;2024-02-23T05:08:27;8.18;;;4.95;;
33403;SDS011;19751;40.274;18.268;2024-02-23T05:10:52;7.72;;;5.60;;
33403;SDS011;19751;40.274;18.268;2024-02-23T05:13:18;8.18;;;5.30;;
33403;SDS011;19751;40.274;18.268;2024-02-23T05:15:44;10.38;;;4.38;;
33403;SDS011;19751;40.274;18.268;2024-02-23T05:18:10;9.20;;;5.20;;
33403;SDS011;19751;40.274;18.268;2024-02-23T05:20:35;8.10;;;5.32;;
33403;SDS011;19751;40.274;18.268;2024-02-23T05:23:00;6.82;;;4.25;;
33403;SDS011;19751;40.274;18.268;2024-02-23T05:25:26;10.05;;;5.47;;
33403;SDS011;19751;40.274;18.268;2024-02-23T05:27:52;10.05;;;5.18;;
33403;SDS011;19751;40.274;18.268;2024-02-23T05:30:17;8.70;;;4.95;;
33403;SDS011;19751;40.274;18.268;2024-02-23T05:32:43;12.65;;;6.00;;
33403;SDS011;19751;40.274;18.268;2024-02-23T05:35:08;8.55;;;4.55;;
33403;SDS011;19751;40.274;18.268;2024-02-23T05:37:35;8.75;;;4.60;;
33403;SDS011;19751;40.274;18.268;2024-02-23T05:40:01;9.75;;;5.47;;
33403;SDS011;19751;40.274;18.268;2024-02-23T05:42:31;9.52;;;5.10;;
33403;SDS011;19751;40.274;18.268;2024-02-23T05:44:57;7.22;;;5.28;;
33403;SDS011;19751;40.274;18.268;2024-02-23T05:47:23;13.07;;;6.18;;
33403;SDS011;19751;40.274;18.268;2024-02-23T05:49:49;7.65;;;4.80;;
33403;SDS011;19751;40.274;18.268;2024-02-23T05:52:15;11.25;;;6.18;;
33403;SDS011;19751;40.274;18.268;2024-02-23T05:54:40;11.43;;;6.25;;
33403;SDS011;19751;40.274;18.268;2024-02-23T05:57:06;13.57;;;6.28;;
33403;SDS011;19751;40.274;18.268;2024-02-23T05:59:31;14.15;;;6.43;;
33403;SDS011;19751;40.274;18.268;2024-02-23T06:01:57;12.25;;;5.68;;
33403;SDS011;19751;40.274;18.268;2024-02-23T06:04:23;20.20;;;7.65;;
33403;SDS011;19751;40.274;18.268;2024-02-23T06:06:48;13.73;;;6.57;;
33403;SDS011;19751;40.274;18.268;2024-02-23T06:09:14;9.27;;;5.07;;
33403;SDS011;19751;40.274;18.268;2024-02-23T06:11:40;12.55;;;5.80;;
33403;SDS011;19751;40.274;18.268;2024-02-23T06:14:07;11.80;;;6.38;;
33403;SDS011;19751;40.274;18.268;2024-02-23T06:16:33;8.23;;;5.63;;
33403;SDS011;19751;40.274;18.268;2024-02-23T06:18:58;17.05;;;7.43;;
33403;SDS011;19751;40.274;18.268;2024-02-23T06:21:24;6.60;;;4.82;;
33403;SDS011;19751;40.274;18.268;2024-02-23T06:23:49;9.23;;;5.00;;
33403;SDS011;19751;40.274;18.268;2024-02-23T06:26:15;7.45;;;5.82;;
33403;SDS011;19751;40.274;18.268;2024-02-23T06:28:40;13.73;;;5.47;;
33403;SDS011;19751;40.274;18.268;2024-02-23T06:31:09;11.93;;;6.75;;
33403;SDS011;19751;40.274;18.268;2024-02-23T06:33:35;9.00;;;6.18;;
33403;SDS011;19751;40.274;18.268;2024-02-23T06:36:02;13.32;;;5.90;;
33403;SDS011;19751;40.274;18.268;2024-02-23T06:38:29;13.00;;;5.65;;
33403;SDS011;19751;40.274;18.268;2024-02-23T06:40:55;10.45;;;5.82;;
33403;SDS011;19751;40.274;18.268;2024-02-23T06:43:21;9.65;;;6.07;;
33403;SDS011;19751;40.274;18.268;2024-02-23T06:45:47;13.15;;;6.95;;
33403;SDS011;19751;40.274;18.268;2024-02-23T06:48:12;14.63;;;7.13;;
33403;SDS011;19751;40.274;18.268;2024-02-23T06:50:38;12.38;;;6.50;;
33403;SDS011;19751;40.274;18.268;2024-02-23T06:53:04;9.25;;;6.15;;
33403;SDS011;19751;40.274;18.268;2024-02-23T06:55:31;9.82;;;5.28;;
33403;SDS011;19751;40.274;18.268;2024-02-23T06:57:59;11.50;;;5.18;;
33403;SDS011;19751;40.274;18.268;2024-02-23T07:00:24;11.70;;;5.57;;
33403;SDS011;19751;40.274;18.268;2024-02-23T07:02:50;10.48;;;6.68;;
33403;SDS011;19751;40.274;18.268;2024-02-23T07:05:16;11.38;;;6.55;;
33403;SDS011;19751;40.274;18.268;2024-02-23T07:07:41;13.05;;;5.88;;
33403;SDS011;19751;40.274;18.268;2024-02-23T07:10:07;12.88;;;5.68;;
33403;SDS011;19751;40.274;18.268;2024-02-23T07:12:33;11.23;;;5.82;;
33403;SDS011;19751;40.274;18.268;2024-02-23T07:14:59;13.18;;;5.40;;
33403;SDS011;19751;40.274;18.268;2024-02-23T07:17:25;11.18;;;5.18;;
33403;SDS011;19751;40.274;18.268;2024-02-23T07:19:50;8.48;;;5.15;;
33403;SDS011;19751;40.274;18.268;2024-02-23T07:22:17;13.95;;;6.25;;
33403;SDS011;19751;40.274;18.268;2024-02-23T07:24:44;9.57;;;5.45;;
33403;SDS011;19751;40.274;18.268;2024-02-23T07:27:09;8.68;;;4.88;;
33403;SDS011;19751;40.274;18.268;2024-02-23T07:29:35;8.57;;;5.80;;
33403;SDS011;19751;40.274;18.268;2024-02-23T07:32:01;14.40;;;6.85;;
33403;SDS011;19751;40.274;18.268;2024-02-23T07:34:27;10.02;;;5.90;;
33403;SDS011;19751;40.274;18.268;2024-02-23T07:36:52;10.77;;;5.28;;
33403;SDS011;19751;40.274;18.268;2024-02-23T07:39:19;10.10;;;6.00;;
33403;SDS011;19751;40.274;18.268;2024-02-23T07:41:45;9.65;;;5.25;;
33403;SDS011;19751;40.274;18.268;2024-02-23T07:44:10;8.55;;;4.90;;
33403;SDS011;19751;40.274;18.268;2024-02-23T07:46:36;13.57;;;6.25;;
33403;SDS011;19751;40.274;18.268;2024-02-23T07:49:02;12.10;;;5.40;;
33403;SDS011;19751;40.274;18.268;2024-02-23T07:51:27;17.95;;;7.55;;
33403;SDS011;19751;40.274;18.268;2024-02-23T07:53:53;9.32;;;5.72;;
33403;SDS011;19751;40.274;18.268;2024-02-23T07:56:20;14.05;;;4.68;;
33403;SDS011;19751;40.274;18.268;2024-02-23T07:58:45;10.45;;;5.05;;
33403;SDS011;19751;40.274;18.268;2024-02-23T08:01:12;7.20;;;4.40;;
33403;SDS011;19751;40.274;18.268;2024-02-23T08:03:37;7.57;;;4.78;;
33403;SDS011;19751;40.274;18.268;2024-02-23T08:06:03;8.65;;;4.50;;
33403;SDS011;19751;40.274;18.268;2024-02-23T08:08:28;9.80;;;4.20;;
33403;SDS011;19751;40.274;18.268;2024-02-23T08:10:57;8.02;;;3.90;;
33403;SDS011;19751;40.274;18.268;2024-02-23T08:13:23;8.70;;;3.50;;
33403;SDS011;19751;40.274;18.268;2024-02-23T08:15:48;6.90;;;4.00;;
33403;SDS011;19751;40.274;18.268;2024-02-23T08:18:14;8.00;;;3.88;;
33403;SDS011;19751;40.274;18.268;2024-02-23T08:20:39;10.50;;;3.83;;
33403;SDS011;19751;40.274;18.268;2024-02-23T08:23:05;9.00;;;3.92;;
33403;SDS011;19751;40.274;18.268;2024-02-23T08:25:30;8.00;;;4.45;;
33403;SDS011;19751;40.274;18.268;2024-02-23T08:27:56;7.07;;;3.28;;
33403;SDS011;19751;40.274;18.268;2024-02-23T08:30:23;7.43;;;3.00;;
33403;SDS011;19751;40.274;18.268;2024-02-23T08:32:49;8.57;;;3.50;;
33403;SDS011;19751;40.274;18.268;2024-02-23T08:35:14;8.77;;;4.07;;
33403;SDS011;19751;40.274;18.268;2024-02-23T08:37:40;8.43;;;4.53;;
33403;SDS011;19751;40.274;18.268;2024-02-23T08:40:08;7.53;;;3.92;;
33403;SDS011;19751;40.274;18.268;2024-02-23T08:42:34;7.82;;;3.50;;
33403;SDS011;19751;40.274;18.268;2024-02-23T08:44:59;8.40;;;3.70;;
33403;SDS011;19751;40.274;18.268;2024-02-23T08:47:25;6.88;;;3.10;;
33403;SDS011;19751;40.274;18.268;2024-02-23T08:49:56;9.40;;;4.00;;
33403;SDS011;19751;40.274;18.268;2024-02-23T08:52:22;12.88;;;4.05;;
33403;SDS011;19751;40.274;18.268;2024-02-23T08:54:48;9.85;;;2.97;;
33403;SDS011;19751;40.274;18.268;2024-02-23T08:57:13;12.48;;;3.30;;
33403;SDS011;19751;40.274;18.268;2024-02-23T08:59:42;8.30;;;4.10;;
33403;SDS011;19751;40.274;18.268;2024-02-23T09:02:08;5.20;;;3.15;;
33403;SDS011;19751;40.274;18.268;2024-02-23T09:04:35;7.88;;;2.75;;
33403;SDS011;19751;40.274;18.268;2024-02-23T09:07:01;8.73;;;2.90;;
33403;SDS011;19751;40.274;18.268;2024-02-23T09:09:26;13.93;;;2.95;;
33403;SDS011;19751;40.274;18.268;2024-02-23T09:11:52;6.13;;;2.78;;
33403;SDS011;19751;40.274;18.268;2024-02-23T09:14:17;6.57;;;2.65;;
33403;SDS011;19751;40.274;18.268;2024-02-23T09:16:43;7.03;;;3.45;;
33403;SDS011;19751;40.274;18.268;2024-02-23T09:19:09;4.75;;;2.33;;
33403;SDS011;19751;40.274;18.268;2024-02-23T09:21:35;7.20;;;3.20;;
33403;SDS011;19751;40.274;18.268;2024-02-23T09:24:00;5.93;;;2.85;;
33403;SDS011;19751;40.274;18.268;2024-02-23T09:26:26;15.68;;;2.42;;
33403;SDS011;19751;40.274;18.268;2024-02-23T09:28:51;7.05;;;3.00;;
33403;SDS011;19751;40.274;18.268;2024-02-23T09:31:17;4.75;;;2.15;;
33403;SDS011;19751;40.274;18.268;2024-02-23T09:33:42;8.70;;;2.95;;
33403;SDS011;19751;40.274;18.268;2024-02-23T09:36:09;4.60;;;2.33;;
33403;SDS011;19751;40.274;18.268;2024-02-23T09:38:34;6.68;;;2.88;;
33403;SDS011;19751;40.274;18.268;2024-02-23T09:41:01;7.20;;;2.35;;
33403;SDS011;19751;40.274;18.268;2024-02-23T09:43:28;11.65;;;2.83;;
33403;SDS011;19751;40.274;18.268;2024-02-23T09:45:57;5.50;;;2.42;;
33403;SDS011;19751;40.274;18.268;2024-02-23T09:48:23;6.50;;;2.17;;
33403;SDS011;19751;40.274;18.268;2024-02-23T09:50:49;3.63;;;1.67;;
33403;SDS011;19751;40.274;18.268;2024-02-23T09:53:17;3.88;;;2.35;;
33403;SDS011;19751;40.274;18.268;2024-02-23T09:55:45;9.65;;;3.05;;
33403;SDS011;19751;40.274;18.268;2024-02-23T09:58:13;5.53;;;1.90;;
33403;SDS011;19751;40.274;18.268;2024-02-23T10:00:42;6.95;;;1.83;;
33403;SDS011;19751;40.274;18.268;2024-02-23T10:03:08;6.55;;;2.45;;
33403;SDS011;19751;40.274;18.268;2024-02-23T10:05:34;7.10;;;3.30;;
33403;SDS011;19751;40.274;18.268;2024-02-23T10:08:00;4.18;;;1.73;;
33403;SDS011;19751;40.274;18.268;2024-02-23T10:10:34;9.48;;;1.88;;
33403;SDS011;19751;40.274;18.268;2024-02-23T10:13:01;6.45;;;1.65;;
33403;SDS011;19751;40.274;18.268;2024-02-23T10:15:29;7.75;;;1.92;;
33403;SDS011;19751;40.274;18.268;2024-02-23T10:17:56;4.63;;;1.33;;
33403;SDS011;19751;40.274;18.268;2024-02-23T10:20:21;5.53;;;1.70;;
33403;SDS011;19751;40.274;18.268;2024-02-23T10:22:47;11.80;;;1.90;;
33403;SDS011;19751;40.274;18.268;2024-02-23T10:25:12;7.03;;;2.22;;
33403;SDS011;19751;40.274;18.268;2024-02-23T10:27:40;8.77;;;1.80;;
33403;SDS011;19751;40.274;18.268;2024-02-23T10:30:07;8.93;;;3.03;;
33403;SDS011;19751;40.274;18.268;2024-02-23T10:32:36;8.07;;;2.03;;
33403;SDS011;19751;40.274;18.268;2024-02-23T10:35:03;9.63;;;2.05;;
33403;SDS011;19751;40.274;18.268;2024-02-23T10:37:35;7.78;;;1.90;;
33403;SDS011;19751;40.274;18.268;2024-02-23T10:40:01;7.38;;;2.97;;
33403;SDS011;19751;40.274;18.268;2024-02-23T10:42:30;8.90;;;2.85;;
33403;SDS011;19751;40.274;18.268;2024-02-23T10:44:59;5.68;;;3.30;;
33403;SDS011;19751;40.274;18.268;2024-02-23T10:47:26;9.63;;;3.58;;
33403;SDS011;19751;40.274;18.268;2024-02-23T10:49:53;17.00;;;5.68;;
33403;SDS011;19751;40.274;18.268;2024-02-23T10:52:19;12.80;;;3.30;;
33403;SDS011;19751;40.274;18.268;2024-02-23T10:54:48;7.88;;;3.15;;
33403;SDS011;19751;40.274;18.268;2024-02-23T10:57:17;10.13;;;3.75;;
33403;SDS011;19751;40.274;18.268;2024-02-23T10:59:44;5.30;;;3.20;;
33403;SDS011;19751;40.274;18.268;2024-02-23T11:02:11;12.80;;;3.00;;
33403;SDS011;19751;40.274;18.268;2024-02-23T11:04:41;7.35;;;2.50;;
33403;SDS011;19751;40.274;18.268;2024-02-23T11:07:13;6.47;;;1.88;;
33403;SDS011;19751;40.274;18.268;2024-02-23T11:09:39;6.13;;;2.97;;
33403;SDS011;19751;40.274;18.268;2024-02-23T11:12:05;5.30;;;1.98;;
33403;SDS011;19751;40.274;18.268;2024-02-23T11:14:37;7.57;;;2.10;;
33403;SDS011;19751;40.274;18.268;2024-02-23T11:17:03;7.10;;;1.65;;
33403;SDS011;19751;40.274;18.268;2024-02-23T11:19:36;5.25;;;2.03;;
33403;SDS011;19751;40.274;18.268;2024-02-23T11:22:03;9.70;;;2.05;;
33403;SDS011;19751;40.274;18.268;2024-02-23T11:24:29;4.75;;;1.65;;
33403;SDS011;19751;40.274;18.268;2024-02-23T11:26:56;4.18;;;1.65;;
33403;SDS011;19751;40.274;18.268;2024-02-23T11:29:33;10.60;;;2.67;;
33403;SDS011;19751;40.274;18.268;2024-02-23T11:31:59;9.32;;;2.25;;
33403;SDS011;19751;40.274;18.268;2024-02-23T11:34:27;9.77;;;2.47;;
33403;SDS011;19751;40.274;18.268;2024-02-23T11:36:53;5.95;;;2.45;;
33403;SDS011;19751;40.274;18.268;2024-02-23T11:39:19;3.60;;;1.92;;
33403;SDS011;19751;40.274;18.268;2024-02-23T11:41:45;8.25;;;1.85;;
33403;SDS011;19751;40.274;18.268;2024-02-23T11:44:14;5.30;;;2.03;;
33403;SDS011;19751;40.274;18.268;2024-02-23T11:46:42;7.40;;;3.08;;
33403;SDS011;19751;40.274;18.268;2024-02-23T11:49:11;4.28;;;1.85;;
33403;SDS011;19751;40.274;18.268;2024-02-23T11:51:37;6.43;;;2.05;;
33403;SDS011;19751;40.274;18.268;2024-02-23T11:54:03;8.65;;;3.72;;
33403;SDS011;19751;40.274;18.268;2024-02-23T11:56:29;7.90;;;2.42;;
33403;SDS011;19751;40.274;18.268;2024-02-23T11:58:55;7.40;;;2.65;;
33403;SDS011;19751;40.274;18.268;2024-02-23T12:01:21;6.80;;;1.90;;
33403;SDS011;19751;40.274;18.268;2024-02-23T12:03:47;5.65;;;2.03;;
33403;SDS011;19751;40.274;18.268;2024-02-23T12:06:14;6.50;;;2.72;;
33403;SDS011;19751;40.274;18.268;2024-02-23T12:08:42;8.73;;;2.20;;
33403;SDS011;19751;40.274;18.268;2024-02-23T12:11:10;3.78;;;1.98;;
33403;SDS011;19751;40.274;18.268;2024-02-23T12:13:37;5.85;;;1.95;;
33403;SDS011;19751;40.274;18.268;2024-02-23T12:16:03;6.05;;;1.70;;
33403;SDS011;19751;40.274;18.268;2024-02-23T12:18:33;11.57;;;1.83;;
33403;SDS011;19751;40.274;18.268;2024-02-23T12:21:05;9.10;;;1.80;;
33403;SDS011;19751;40.274;18.268;2024-02-23T12:23:41;6.15;;;1.60;;
33403;SDS011;19751;40.274;18.268;2024-02-23T12:26:09;7.25;;;2.13;;
33403;SDS011;19751;40.274;18.268;2024-02-23T12:28:36;6.30;;;2.80;;
33403;SDS011;19751;40.274;18.268;2024-02-23T12:31:02;5.75;;;1.63;;
33403;SDS011;19751;40.274;18.268;2024-02-23T12:33:30;11.98;;;1.80;;
33403;SDS011;19751;40.274;18.268;2024-02-23T12:35:58;3.55;;;1.77;;
33403;SDS011;19751;40.274;18.268;2024-02-23T12:38:24;5.55;;;1.50;;
33403;SDS011;19751;40.274;18.268;2024-02-23T12:40:50;10.05;;;2.47;;
33403;SDS011;19751;40.274;18.268;2024-02-23T12:43:16;8.25;;;1.92;;
33403;SDS011;19751;40.274;18.268;2024-02-23T12:45:42;6.15;;;2.60;;
33403;SDS011;19751;40.274;18.268;2024-02-23T12:48:10;5.50;;;2.65;;
33403;SDS011;19751;40.274;18.268;2024-02-23T12:50:35;9.13;;;3.10;;
33403;SDS011;19751;40.274;18.268;2024-02-23T12:53:01;9.48;;;2.38;;
33403;SDS011;19751;40.274;18.268;2024-02-23T12:55:27;6.38;;;2.28;;
33403;SDS011;19751;40.274;18.268;2024-02-23T12:57:53;7.95;;;3.40;;
33403;SDS011;19751;40.274;18.268;2024-02-23T13:00:18;12.75;;;2.55;;
33403;SDS011;19751;40.274;18.268;2024-02-23T13:02:43;6.57;;;2.28;;
33403;SDS011;19751;40.274;18.268;2024-02-23T13:05:09;5.95;;;2.70;;
33403;SDS011;19751;40.274;18.268;2024-02-23T13:07:35;13.43;;;2.70;;
33403;SDS011;19751;40.274;18.268;2024-02-23T13:10:00;6.13;;;1.80;;
33403;SDS011;19751;40.274;18.268;2024-02-23T13:12:26;9.27;;;2.25;;
33403;SDS011;19751;40.274;18.268;2024-02-23T13:14:51;9.60;;;1.70;;
33403;SDS011;19751;40.274;18.268;2024-02-23T13:17:17;12.98;;;2.22;;
33403;SDS011;19751;40.274;18.268;2024-02-23T13:19:43;8.75;;;2.22;;
33403;SDS011;19751;40.274;18.268;2024-02-23T13:22:08;2.85;;;1.25;;
33403;SDS011;19751;40.274;18.268;2024-02-23T13:24:34;6.32;;;2.03;;
33403;SDS011;19751;40.274;18.268;2024-02-23T13:27:00;6.93;;;2.00;;
33403;SDS011;19751;40.274;18.268;2024-02-23T13:29:25;6.60;;;1.92;;
33403;SDS011;19751;40.274;18.268;2024-02-23T13:31:51;9.75;;;2.00;;
33403;SDS011;19751;40.274;18.268;2024-02-23T13:34:17;12.45;;;3.03;;
33403;SDS011;19751;40.274;18.268;2024-02-23T13:36:43;7.90;;;3.17;;
33403;SDS011;19751;40.274;18.268;2024-02-23T13:39:09;9.80;;;2.65;;
33403;SDS011;19751;40.274;18.268;2024-02-23T13:41:34;8.18;;;1.75;;
33403;SDS011;19751;40.274;18.268;2024-02-23T13:44:00;12.02;;;4.68;;
33403;SDS011;19751;40.274;18.268;2024-02-23T13:46:25;12.07;;;3.55;;
33403;SDS011;19751;40.274;18.268;2024-02-23T13:49:01;10.10;;;4.30;;
33403;SDS011;19751;40.274;18.268;2024-02-23T13:51:29;10.60;;;3.17;;
33403;SDS011;19751;40.274;18.268;2024-02-23T13:53:54;13.75;;;4.93;;
33403;SDS011;19751;40.274;18.268;2024-02-23T13:56:20;6.53;;;2.35;;
33403;SDS011;19751;40.274;18.268;2024-02-23T13:58:45;5.72;;;2.95;;
33403;SDS011;19751;40.274;18.268;2024-02-23T14:01:11;10.65;;;4.55;;
33403;SDS011;19751;40.274;18.268;2024-02-23T14:03:36;12.68;;;5.32;;
33403;SDS011;19751;40.274;18.268;2024-02-23T14:06:02;14.43;;;4.30;;
33403;SDS011;19751;40.274;18.268;2024-02-23T14:08:28;7.65;;;3.28;;
33403;SDS011;19751;40.274;18.268;2024-02-23T14:10:53;9.25;;;2.75;;
33403;SDS011;19751;40.274;18.268;2024-02-23T14:13:19;8.30;;;2.53;;
33403;SDS011;19751;40.274;18.268;2024-02-23T14:15:45;9.73;;;3.20;;
33403;SDS011;19751;40.274;18.268;2024-02-23T14:18:10;8.75;;;3.63;;
33403;SDS011;19751;40.274;18.268;2024-02-23T14:20:36;16.85;;;6.25;;
33403;SDS011;19751;40.274;18.268;2024-02-23T14:23:01;10.23;;;3.92;;